createdAt,value
2022-10-23T00:00:43.565Z,339.38
2022-10-23T00:03:09.970Z,331.25
2022-10-23T00:05:40.470Z,127.03
2022-10-23T00:08:07.275Z,196.93
2022-10-23T00:10:33.903Z,297.10
2022-10-23T00:13:00.315Z,196.13
2022-10-23T00:15:27.437Z,220.27
2022-10-23T00:17:54.157Z,104.78
2022-10-23T00:20:21.748Z,146.45
2022-10-23T00:22:48.117Z,283.95
2022-10-23T00:25:16.304Z,192.57
2022-10-23T00:27:43.298Z,246.82
2022-10-23T00:30:10.772Z,134.50
2022-10-23T00:32:37.444Z,156.35
2022-10-23T00:35:04.679Z,156.85
2022-10-23T00:37:31.041Z,206.77
2022-10-23T00:39:57.417Z,138.25
2022-10-23T00:42:24.106Z,286.60
2022-10-23T00:44:50.402Z,56.47
2022-10-23T00:47:17.314Z,97.22
2022-10-23T00:49:44.027Z,221.02
2022-10-23T00:52:13.140Z,187.07
2022-10-23T00:54:43.605Z,292.08
2022-10-23T00:57:14.724Z,107.45
2022-10-23T00:59:42.273Z,93.30
2022-10-23T01:02:09.140Z,171.48
2022-10-23T01:04:36.785Z,174.38
2022-10-23T01:07:14.352Z,93.80
2022-10-23T01:09:55.732Z,66.82
2022-10-23T01:12:24.799Z,212.52
2022-10-23T01:15:16.180Z,236.40
2022-10-23T01:17:49.727Z,184.27
2022-10-23T01:20:39.360Z,86.60
2022-10-23T01:23:29.054Z,160.85
2022-10-23T01:26:20.426Z,106.05
2022-10-23T01:28:59.524Z,124.65
2022-10-23T01:31:42.387Z,140.90
2022-10-23T01:34:22.044Z,220.82
2022-10-23T01:36:51.279Z,234.68
2022-10-23T01:39:27.645Z,177.25
2022-10-23T01:42:03.766Z,146.25
2022-10-23T01:44:34.915Z,246.85
2022-10-23T01:47:03.846Z,160.13
2022-10-23T01:49:31.747Z,263.73
2022-10-23T01:52:03.107Z,167.38
2022-10-23T01:54:33.746Z,207.63
2022-10-23T01:57:00.583Z,164.38
2022-10-23T01:59:35.218Z,170.70
2022-10-23T02:02:04.032Z,215.23
2022-10-23T02:04:36.255Z,256.10
2022-10-23T02:07:02.732Z,174.13
2022-10-23T02:09:29.153Z,165.30
2022-10-23T02:12:03.383Z,93.75
2022-10-23T02:14:36.369Z,257.02
2022-10-23T02:17:16.661Z,261.63
2022-10-23T02:19:56.214Z,231.57
2022-10-23T02:22:28.924Z,200.95
2022-10-23T02:25:08.969Z,332.77
2022-10-23T02:27:39.983Z,311.90
2022-10-23T02:32:42.402Z,203.90
2022-10-23T02:35:09.318Z,176.65
2022-10-23T02:37:35.749Z,252.52
2022-10-23T02:40:03.896Z,391.75
2022-10-23T02:42:47.027Z,469.70
2022-10-23T02:45:36.253Z,455.52
2022-10-23T02:48:29.120Z,324.05
2022-10-23T02:51:18.691Z,224.68
2022-10-23T02:53:51.873Z,318.05
2022-10-23T02:56:38.498Z,315.25
2022-10-23T02:59:18.221Z,405.38
2022-10-23T03:01:51.710Z,323.27
2022-10-23T03:04:21.162Z,414.83
2022-10-23T03:06:49.218Z,399.60
2022-10-23T03:09:15.651Z,441.52
2022-10-23T03:11:42.026Z,374.17
2022-10-23T03:14:09.545Z,388.10
2022-10-23T03:16:36.401Z,404.42
2022-10-23T03:19:02.777Z,352.25
2022-10-23T03:21:29.166Z,311.55
2022-10-23T03:23:55.594Z,331.88
2022-10-23T03:26:21.974Z,300.73
2022-10-23T03:28:48.322Z,309.85
2022-10-23T03:31:14.696Z,188.93
2022-10-23T03:33:41.071Z,300.13
2022-10-23T03:36:08.019Z,269.08
2022-10-23T03:38:34.596Z,300.50
2022-10-23T03:41:01.004Z,323.52
2022-10-23T03:43:27.430Z,243.02
2022-10-23T03:45:55.382Z,190.55
2022-10-23T03:48:24.026Z,281.48
2022-10-23T03:50:50.595Z,349.80
2022-10-23T03:53:17.320Z,367.30
2022-10-23T03:55:44.650Z,204.07
2022-10-23T03:58:11.258Z,140.68
2022-10-23T04:00:37.635Z,180.60
2022-10-23T04:03:04.049Z,248.00
2022-10-23T04:05:30.353Z,421.27
2022-10-23T04:07:57.126Z,173.55
2022-10-23T04:10:23.467Z,288.30
2022-10-23T04:12:49.840Z,172.30
2022-10-23T04:15:16.223Z,196.35
2022-10-23T04:17:42.555Z,314.77
2022-10-23T04:20:09.526Z,197.60
2022-10-23T04:22:35.840Z,192.55
2022-10-23T04:25:02.205Z,226.38
2022-10-23T04:27:28.595Z,213.20
2022-10-23T04:29:56.898Z,389.77
2022-10-23T04:32:25.611Z,287.33
2022-10-23T04:34:51.998Z,169.02
2022-10-23T04:37:18.359Z,270.45
2022-10-23T04:39:44.704Z,167.48
2022-10-23T04:42:11.063Z,50.60
2022-10-23T04:44:37.447Z,33.80
2022-10-23T04:47:03.821Z,40.75
2022-10-23T04:49:30.223Z,28.77
2022-10-23T04:51:56.624Z,46.70
2022-10-23T04:54:23.003Z,77.25
2022-10-23T04:56:49.388Z,39.67
2022-10-23T04:59:15.872Z,108.03
2022-10-23T05:01:42.513Z,102.68
2022-10-23T05:04:08.962Z,86.07
2022-10-23T05:06:35.290Z,103.18
2022-10-23T05:09:01.631Z,266.27
2022-10-23T05:11:27.968Z,87.13
2022-10-23T05:13:54.407Z,44.63
2022-10-23T05:16:32.985Z,59.53
2022-10-23T05:19:00.186Z,217.48
2022-10-23T05:21:31.690Z,103.88
2022-10-23T05:26:31.841Z,54.50
2022-10-23T05:28:58.545Z,55.42
2022-10-23T05:31:25.602Z,89.93
2022-10-23T05:33:54.925Z,106.35
2022-10-23T05:36:23.799Z,63.50
2022-10-23T05:38:50.727Z,68.18
2022-10-23T05:41:17.623Z,94.78
2022-10-23T05:43:44.019Z,107.80
2022-10-23T05:46:10.350Z,176.95
2022-10-23T05:48:36.691Z,149.25
2022-10-23T05:51:08.215Z,80.88
2022-10-23T05:53:36.274Z,120.53
2022-10-23T05:56:09.150Z,86.50
2022-10-23T05:58:35.631Z,157.65
2022-10-23T06:01:07.056Z,80.68
2022-10-23T06:03:33.537Z,63.78
2022-10-23T06:06:00.905Z,132.88
2022-10-23T06:08:27.268Z,87.32
2022-10-23T06:10:54.446Z,128.88
2022-10-23T06:13:20.771Z,116.25
2022-10-23T06:15:47.295Z,131.90
2022-10-23T06:18:14.040Z,120.50
2022-10-23T06:20:40.953Z,151.68
2022-10-23T06:23:08.351Z,190.82
2022-10-23T06:25:34.686Z,443.95
2022-10-23T06:28:01.023Z,370.05
2022-10-23T06:30:27.488Z,254.25
2022-10-23T06:32:53.902Z,270.10
2022-10-23T06:35:20.268Z,258.80
2022-10-23T06:37:46.618Z,406.38
2022-10-23T06:40:13.139Z,436.45
2022-10-23T06:42:39.474Z,250.20
2022-10-23T06:45:07.222Z,295.45
2022-10-23T06:47:33.763Z,221.98
2022-10-23T06:50:00.314Z,106.30
2022-10-23T06:52:45.799Z,171.23
2022-10-23T06:55:13.003Z,194.05
2022-10-23T06:57:39.303Z,191.23
2022-10-23T07:00:06.392Z,192.75
2022-10-23T07:02:32.771Z,128.52
2022-10-23T07:04:59.213Z,151.35
2022-10-23T07:07:25.599Z,191.32
2022-10-23T07:09:51.981Z,155.77
2022-10-23T07:12:18.362Z,193.95
2022-10-23T07:14:44.723Z,135.63
2022-10-23T07:17:11.100Z,196.20
2022-10-23T07:19:37.495Z,215.68
2022-10-23T07:22:04.928Z,274.15
2022-10-23T07:24:31.878Z,103.32
2022-10-23T07:26:58.333Z,76.45
2022-10-23T07:29:24.727Z,125.72
2022-10-23T07:31:51.063Z,96.55
2022-10-23T07:34:17.511Z,112.38
2022-10-23T07:36:43.876Z,43.67
2022-10-23T07:39:10.275Z,182.98
2022-10-23T07:41:36.626Z,103.35
2022-10-23T07:44:03.312Z,36.42
2022-10-23T07:46:29.663Z,25.58
2022-10-23T07:48:56.079Z,24.08
2022-10-23T07:51:22.481Z,37.92
2022-10-23T07:53:48.918Z,52.38
2022-10-23T07:56:20.215Z,82.55
2022-10-23T07:58:46.591Z,83.68
2022-10-23T08:01:19.550Z,141.02
2022-10-23T08:03:46.568Z,104.78
2022-10-23T08:06:12.985Z,71.05
2022-10-23T08:08:39.439Z,63.92
2022-10-23T08:11:06.479Z,148.80
2022-10-23T08:13:33.417Z,85.03
2022-10-23T08:15:59.865Z,140.38
2022-10-23T08:18:26.199Z,97.93
2022-10-23T08:20:52.868Z,80.07
2022-10-23T08:23:20.148Z,103.10
2022-10-23T08:25:47.075Z,155.15
2022-10-23T08:28:13.511Z,163.07
2022-10-23T08:30:40.034Z,104.70
2022-10-23T08:33:07.187Z,193.05
2022-10-23T08:35:38.039Z,109.15
2022-10-23T08:38:05.598Z,214.38
2022-10-23T08:40:35.507Z,134.75
2022-10-23T08:43:11.579Z,80.90
2022-10-23T08:45:44.252Z,66.72
2022-10-23T08:48:20.530Z,28.48
2022-10-23T08:50:53.423Z,26.35
2022-10-23T08:53:29.481Z,16.40
2022-10-23T08:56:12.041Z,73.03
2022-10-23T09:01:33.105Z,25.83
2022-10-23T09:04:00.459Z,58.92
2022-10-23T09:06:33.901Z,55.33
2022-10-23T09:09:09.985Z,32.10
2022-10-23T09:11:47.267Z,33.25
2022-10-23T09:14:40.459Z,20.23
2022-10-23T09:17:24.502Z,37.15
2022-10-23T09:20:00.582Z,27.98
2022-10-23T09:22:28.727Z,42.83
2022-10-23T09:24:55.110Z,37.65
2022-10-23T09:27:21.585Z,43.97
2022-10-23T09:29:54.116Z,59.83
2022-10-23T09:32:32.729Z,38.70
2022-10-23T09:34:59.077Z,34.45
2022-10-23T09:37:31.078Z,24.67
2022-10-23T09:40:15.465Z,31.88
2022-10-23T09:42:52.308Z,31.83
2022-10-23T09:48:17.677Z,26.58
2022-10-23T09:50:51.721Z,25.83
2022-10-23T09:53:29.498Z,31.98
2022-10-23T09:55:59.257Z,29.05
2022-10-23T09:58:38.531Z,25.63
2022-10-23T10:01:05.413Z,23.45
2022-10-23T10:03:32.434Z,26.88
2022-10-23T10:06:02.299Z,21.88
2022-10-23T10:08:51.693Z,21.55
2022-10-23T10:11:27.677Z,20.75
2022-10-23T10:14:15.196Z,21.42
2022-10-23T10:17:14.449Z,19.92
2022-10-23T10:20:03.747Z,20.35
2022-10-23T10:22:57.743Z,21.58
2022-10-23T10:25:41.992Z,20.00
2022-10-23T10:28:17.426Z,19.20
2022-10-23T10:31:21.328Z,23.63
2022-10-23T10:34:04.983Z,19.83
2022-10-23T10:36:44.138Z,20.50
2022-10-23T10:39:31.904Z,16.33
2022-10-23T10:42:12.768Z,22.17
2022-10-23T10:44:57.491Z,19.88
2022-10-23T10:47:45.319Z,17.52
2022-10-23T10:53:02.410Z,18.52
2022-10-23T10:55:35.544Z,21.67
2022-10-23T10:58:20.302Z,17.63
2022-10-23T11:00:53.134Z,18.33
2022-10-23T11:03:37.601Z,19.38
2022-10-23T11:06:16.385Z,16.60
2022-10-23T11:08:57.563Z,18.85
2022-10-23T11:11:35.230Z,18.83
2022-10-23T11:14:02.084Z,17.08
2022-10-23T11:16:36.536Z,17.60
2022-10-23T11:19:21.192Z,18.48
2022-10-23T11:22:18.395Z,17.35
2022-10-23T11:25:21.492Z,20.08
2022-10-23T11:28:11.453Z,20.38
2022-10-23T11:30:43.835Z,16.85
2022-10-23T11:33:25.929Z,18.02
2022-10-23T11:36:19.747Z,13.77
2022-10-23T11:41:33.811Z,15.57
2022-10-23T11:44:03.933Z,18.20
2022-10-23T11:46:38.658Z,16.90
2022-10-23T11:49:19.224Z,16.30
2022-10-23T11:51:45.834Z,16.25
2022-10-23T11:54:13.289Z,16.15
2022-10-23T11:57:10.726Z,14.95
2022-10-23T11:59:49.545Z,12.82
2022-10-23T12:02:22.805Z,11.85
2022-10-23T12:04:52.377Z,12.50
2022-10-23T12:07:28.907Z,12.45
2022-10-23T12:10:03.547Z,13.32
2022-10-23T12:12:40.649Z,13.07
2022-10-23T12:15:18.994Z,13.88
2022-10-23T12:17:47.235Z,12.48
2022-10-23T12:20:13.660Z,12.40
2022-10-23T12:22:49.029Z,12.80
2022-10-23T12:25:39.574Z,11.55
2022-10-23T12:28:14.063Z,13.45
2022-10-23T12:31:14.044Z,8.63
2022-10-23T12:34:01.131Z,11.18
2022-10-23T12:36:37.300Z,12.23
2022-10-23T12:39:03.692Z,11.25
2022-10-23T12:41:33.673Z,12.88
2022-10-23T12:44:03.251Z,12.20
2022-10-23T12:46:31.738Z,12.35
2022-10-23T12:48:59.888Z,12.73
2022-10-23T12:51:36.740Z,14.48
2022-10-23T12:54:04.054Z,13.80
2022-10-23T12:56:38.890Z,11.63
2022-10-23T12:59:15.014Z,12.18
2022-10-23T13:01:43.435Z,11.80
2022-10-23T13:04:31.889Z,10.52
2022-10-23T13:07:03.058Z,9.93
2022-10-23T13:09:42.165Z,11.55
2022-10-23T13:12:18.528Z,8.70
2022-10-23T13:15:03.301Z,8.20
2022-10-23T13:17:37.730Z,10.40
2022-10-23T13:20:10.309Z,10.95
2022-10-23T13:22:36.937Z,11.30
2022-10-23T13:25:04.331Z,9.68
2022-10-23T13:27:30.624Z,13.43
2022-10-23T13:29:57.026Z,11.13
2022-10-23T13:32:25.409Z,10.18
2022-10-23T13:35:03.931Z,11.45
2022-10-23T13:37:30.769Z,11.98
2022-10-23T13:40:01.252Z,12.20
2022-10-23T13:42:27.773Z,10.38
2022-10-23T13:44:54.527Z,10.90
2022-10-23T13:47:21.391Z,13.88
2022-10-23T13:49:47.849Z,10.25
2022-10-23T13:52:19.271Z,9.35
2022-10-23T13:54:45.706Z,10.68
2022-10-23T13:57:14.656Z,11.40
2022-10-23T13:59:41.679Z,11.27
2022-10-23T14:02:19.692Z,9.15
2022-10-23T14:04:47.165Z,10.93
2022-10-23T14:07:13.544Z,13.32
2022-10-23T14:09:40.128Z,10.88
2022-10-23T14:12:06.614Z,15.73
2022-10-23T14:14:33.852Z,9.43
2022-10-23T14:17:00.325Z,9.32
2022-10-23T14:19:26.762Z,8.23
2022-10-23T14:21:53.191Z,10.45
2022-10-23T14:24:19.537Z,10.25
2022-10-23T14:26:45.989Z,10.50
2022-10-23T14:29:21.367Z,8.30
2022-10-23T14:31:49.541Z,8.57
2022-10-23T14:34:16.562Z,10.65
2022-10-23T14:36:49.959Z,9.13
2022-10-23T14:39:17.863Z,9.18
2022-10-23T14:41:44.455Z,10.98
2022-10-23T14:44:10.914Z,8.27
2022-10-23T14:46:38.231Z,9.07
2022-10-23T14:49:04.700Z,9.00
2022-10-23T14:51:31.091Z,8.45
2022-10-23T14:54:07.473Z,8.27
2022-10-23T14:56:37.553Z,9.88
2022-10-23T14:59:04.728Z,6.97
2022-10-23T15:01:33.204Z,9.00
2022-10-23T15:03:59.734Z,9.63
2022-10-23T15:06:26.548Z,6.90
2022-10-23T15:08:56.842Z,9.40
2022-10-23T15:11:24.548Z,8.85
2022-10-23T15:13:51.299Z,7.75
2022-10-23T15:16:18.180Z,8.55
2022-10-23T15:18:44.538Z,8.65
2022-10-23T15:21:11.183Z,10.93
2022-10-23T15:23:40.020Z,6.88
2022-10-23T15:26:09.219Z,7.75
2022-10-23T15:28:35.625Z,7.85
2022-10-23T15:31:02.095Z,8.60
2022-10-23T15:33:28.705Z,8.85
2022-10-23T15:35:55.360Z,12.30
2022-10-23T15:38:22.577Z,7.75
2022-10-23T15:40:49.391Z,6.60
2022-10-23T15:43:16.249Z,7.30
2022-10-23T15:45:43.195Z,7.53
2022-10-23T15:48:10.807Z,11.05
2022-10-23T15:50:37.535Z,32.78
2022-10-23T15:53:04.077Z,8.27
2022-10-23T15:55:30.581Z,24.90
2022-10-23T15:58:01.798Z,9.10
2022-10-23T16:00:28.319Z,9.55
2022-10-23T16:02:54.770Z,9.07
2022-10-23T16:05:21.303Z,10.60
2022-10-23T16:07:47.735Z,12.20
2022-10-23T16:10:14.209Z,8.00
2022-10-23T16:12:40.747Z,8.50
2022-10-23T16:15:08.199Z,8.73
2022-10-23T16:17:34.693Z,6.70
2022-10-23T16:20:01.127Z,7.68
2022-10-23T16:22:27.774Z,6.85
2022-10-23T16:24:54.336Z,7.57
2022-10-23T16:27:20.779Z,6.43
2022-10-23T16:29:47.297Z,6.53
2022-10-23T16:32:13.636Z,22.20
2022-10-23T16:34:40.155Z,14.98
2022-10-23T16:37:06.758Z,14.00
2022-10-23T16:39:33.122Z,12.27
2022-10-23T16:41:59.442Z,9.93
2022-10-23T16:44:25.956Z,7.20
2022-10-23T16:46:52.493Z,10.38
2022-10-23T16:49:20.006Z,10.40
2022-10-23T16:51:46.501Z,8.38
2022-10-23T16:54:14.556Z,10.55
2022-10-23T16:56:41.019Z,7.95
2022-10-23T16:59:07.400Z,6.72
2022-10-23T17:01:33.930Z,8.00
2022-10-23T17:04:00.402Z,9.82
2022-10-23T17:06:29.562Z,6.53
2022-10-23T17:08:56.792Z,9.05
2022-10-23T17:11:32.159Z,7.50
2022-10-23T17:14:01.767Z,7.65
2022-10-23T17:16:34.885Z,8.45
2022-10-23T17:19:03.132Z,10.50
2022-10-23T17:21:36.088Z,8.23
2022-10-23T17:26:34.455Z,6.80
2022-10-23T17:29:02.360Z,7.32
2022-10-23T17:31:31.843Z,7.40
2022-10-23T17:34:06.342Z,6.25
2022-10-23T17:36:36.993Z,8.48
2022-10-23T17:39:07.463Z,6.88
2022-10-23T17:41:34.768Z,6.22
2022-10-23T17:44:01.285Z,6.57
2022-10-23T17:46:29.177Z,7.40
2022-10-23T17:49:00.248Z,7.50
2022-10-23T17:51:28.829Z,5.78
2022-10-23T17:53:57.352Z,5.35
2022-10-23T17:56:26.614Z,8.65
2022-10-23T17:58:55.720Z,6.68
2022-10-23T18:01:25.905Z,7.50
2022-10-23T18:03:55.251Z,8.18
2022-10-23T18:06:28.786Z,6.25
2022-10-23T18:08:58.438Z,8.85
2022-10-23T18:11:28.296Z,6.55
2022-10-23T18:13:57.400Z,10.13
2022-10-23T18:16:23.917Z,11.20
2022-10-23T18:18:53.506Z,10.65
2022-10-23T18:21:22.650Z,6.55
2022-10-23T18:23:49.760Z,6.97
2022-10-23T18:26:22.108Z,4.57
2022-10-23T18:28:50.827Z,6.40
2022-10-23T18:31:18.227Z,7.30
2022-10-23T18:33:45.888Z,7.57
2022-10-23T18:36:26.621Z,8.10
2022-10-23T18:38:53.147Z,9.73
2022-10-23T18:41:20.248Z,8.27
2022-10-23T18:43:46.676Z,6.15
2022-10-23T18:46:14.257Z,7.72
2022-10-23T18:48:42.296Z,5.00
2022-10-23T18:51:20.726Z,6.38
2022-10-23T18:53:47.707Z,5.25
2022-10-23T18:56:16.312Z,8.20
2022-10-23T18:58:42.718Z,5.88
2022-10-23T19:01:09.254Z,3.97
2022-10-23T19:03:36.728Z,5.63
2022-10-23T19:06:06.842Z,4.13
2022-10-23T19:08:37.261Z,4.00
2022-10-23T19:11:06.485Z,5.32
2022-10-23T19:13:38.913Z,4.55
2022-10-23T19:16:15.675Z,3.35
2022-10-23T19:18:50.098Z,3.97
2022-10-23T19:21:20.566Z,5.78
2022-10-23T19:23:48.922Z,4.60
2022-10-23T19:26:16.015Z,4.55
2022-10-23T19:28:45.769Z,6.32
2022-10-23T19:31:12.844Z,5.35
2022-10-23T19:33:39.529Z,5.05
2022-10-23T19:36:11.080Z,5.82
2022-10-23T19:38:40.711Z,4.55
2022-10-23T19:41:07.491Z,6.20
2022-10-23T19:43:34.137Z,4.75
2022-10-23T19:46:04.963Z,5.15
2022-10-23T19:48:34.394Z,4.70
2022-10-23T19:51:01.004Z,4.90
2022-10-23T19:53:27.348Z,5.13
2022-10-23T19:56:05.382Z,3.88
2022-10-23T19:58:32.047Z,7.13
2022-10-23T20:00:58.550Z,5.72
2022-10-23T20:03:24.952Z,5.75
2022-10-23T20:05:51.415Z,4.60
2022-10-23T20:08:18.027Z,5.20
2022-10-23T20:10:46.461Z,4.55
2022-10-23T20:13:19.995Z,3.72
2022-10-23T20:15:47.865Z,3.88
2022-10-23T20:18:15.354Z,3.17
2022-10-23T20:20:42.395Z,4.53
2022-10-23T20:23:09.239Z,4.22
2022-10-23T20:25:35.770Z,4.47
2022-10-23T20:28:02.349Z,4.55
2022-10-23T20:30:28.867Z,5.72
2022-10-23T20:32:56.033Z,5.45
2022-10-23T20:35:22.362Z,3.10
2022-10-23T20:37:48.698Z,5.05
2022-10-23T20:40:15.195Z,4.93
2022-10-23T20:42:41.640Z,4.43
2022-10-23T20:45:08.520Z,6.10
2022-10-23T20:47:34.859Z,3.20
2022-10-23T20:50:01.240Z,4.57
2022-10-23T20:52:29.971Z,3.80
2022-10-23T20:54:56.470Z,6.15
2022-10-23T20:57:22.833Z,3.47
2022-10-23T20:59:49.223Z,4.38
2022-10-23T21:02:15.681Z,3.53
2022-10-23T21:04:42.190Z,3.85
2022-10-23T21:07:10.329Z,5.25
2022-10-23T21:09:38.432Z,6.00
2022-10-23T21:12:06.349Z,4.68
2022-10-23T21:14:32.834Z,2.85
2022-10-23T21:16:59.307Z,4.60
2022-10-23T21:19:25.742Z,6.35
2022-10-23T21:21:52.489Z,4.22
2022-10-23T21:24:18.898Z,5.00
2022-10-23T21:26:45.776Z,4.15
2022-10-23T21:29:20.838Z,4.40
2022-10-23T21:31:58.613Z,4.60
2022-10-23T21:34:26.186Z,4.28
2022-10-23T21:37:13.511Z,6.03
2022-10-23T21:39:39.219Z,4.97
2022-10-23T21:42:05.890Z,3.55
2022-10-23T21:44:32.370Z,4.53
2022-10-23T21:46:58.746Z,4.30
2022-10-23T21:49:25.083Z,5.93
2022-10-23T21:51:51.582Z,4.68
2022-10-23T21:54:17.920Z,3.85
2022-10-23T21:56:47.711Z,6.53
2022-10-23T21:59:16.733Z,3.80
2022-10-23T22:01:46.197Z,4.88
2022-10-23T22:04:14.761Z,3.80
2022-10-23T22:06:42.052Z,5.90
2022-10-23T22:09:11.321Z,4.35
2022-10-23T22:11:37.950Z,4.53
2022-10-23T22:14:04.340Z,3.78
2022-10-23T22:16:30.819Z,2.45
2022-10-23T22:18:57.295Z,5.30
2022-10-23T22:21:26.519Z,3.00
2022-10-23T22:23:57.492Z,4.97
2022-10-23T22:26:30.070Z,4.03
2022-10-23T22:28:59.520Z,4.18
2022-10-23T22:31:30.643Z,5.88
2022-10-23T22:33:57.982Z,3.97
2022-10-23T22:36:25.521Z,4.25
2022-10-23T22:38:52.464Z,3.65
2022-10-23T22:41:19.004Z,8.32
2022-10-23T22:43:45.383Z,10.10
2022-10-23T22:46:18.927Z,5.53
2022-10-23T22:48:45.829Z,4.20
2022-10-23T22:51:15.314Z,6.32
2022-10-23T22:53:42.829Z,4.75
2022-10-23T22:56:15.304Z,5.18
2022-10-23T22:58:41.675Z,5.40
2022-10-23T23:01:17.058Z,4.75
2022-10-23T23:03:44.077Z,7.03
2022-10-23T23:06:11.369Z,4.18
2022-10-23T23:08:39.466Z,5.60
2022-10-23T23:11:07.846Z,4.63
2022-10-23T23:13:34.643Z,4.80
2022-10-23T23:16:02.027Z,3.20
2022-10-23T23:18:29.259Z,4.47
2022-10-23T23:21:00.679Z,5.78
2022-10-23T23:23:27.044Z,3.60
2022-10-23T23:25:53.388Z,3.20
2022-10-23T23:28:20.953Z,4.20
2022-10-23T23:30:48.374Z,4.43
2022-10-23T23:33:16.581Z,4.10
2022-10-23T23:35:44.978Z,4.28
2022-10-23T23:38:12.685Z,5.85
2022-10-23T23:40:40.266Z,5.88
2022-10-23T23:43:06.942Z,4.45
2022-10-23T23:45:33.427Z,2.70
2022-10-23T23:47:59.767Z,5.05
2022-10-23T23:50:27.850Z,5.15
2022-10-23T23:52:54.322Z,4.88
2022-10-23T23:55:20.692Z,5.22
2022-10-23T23:57:47.261Z,5.30
